sensor_id;sensor_type;location;lat;lon;timestamp;temperature;humidity
32173;DHT22;18679;45.190;5.722;2023-07-08T13:45:28;45.40;21.00
32173;DHT22;18679;45.190;5.722;2023-07-08T13:48:43;45.00;21.30
32173;DHT22;18679;45.190;5.722;2023-07-08T13:51:44;45.00;21.40
32173;DHT22;18679;45.190;5.722;2023-07-08T13:54:51;45.10;21.50
32173;DHT22;18679;45.190;5.722;2023-07-08T13:58:00;45.40;21.00
32173;DHT22;18679;45.190;5.722;2023-07-08T14:01:01;45.40;21.00
32173;DHT22;18679;45.190;5.722;2023-07-08T14:04:03;45.20;21.00
32173;DHT22;18679;45.190;5.722;2023-07-08T14:07:08;45.20;21.20
32173;DHT22;18679;45.190;5.722;2023-07-08T14:10:12;45.40;20.80
32173;DHT22;18679;45.190;5.722;2023-07-08T14:13:14;45.20;21.20
32173;DHT22;18679;45.190;5.722;2023-07-08T14:16:28;45.60;20.90
32173;DHT22;18679;45.190;5.722;2023-07-08T14:19:32;46.30;20.50
32173;DHT22;18679;45.190;5.722;2023-07-08T14:22:33;47.00;20.10
32173;DHT22;18679;45.190;5.722;2023-07-08T14:25:34;47.50;19.50
32173;DHT22;18679;45.190;5.722;2023-07-08T14:28:35;47.70;19.50
32173;DHT22;18679;45.190;5.722;2023-07-08T14:31:37;47.70;19.20
32173;DHT22;18679;45.190;5.722;2023-07-08T14:34:38;47.30;19.50
32173;DHT22;18679;45.190;5.722;2023-07-08T14:37:39;47.10;19.60
32173;DHT22;18679;45.190;5.722;2023-07-08T14:40:42;47.20;19.60
32173;DHT22;18679;45.190;5.722;2023-07-08T14:43:43;47.20;19.60
32173;DHT22;18679;45.190;5.722;2023-07-08T14:46:44;47.60;19.40
32173;DHT22;18679;45.190;5.722;2023-07-08T14:49:45;48.10;19.20
32173;DHT22;18679;45.190;5.722;2023-07-08T14:52:47;48.10;18.90
32173;DHT22;18679;45.190;5.722;2023-07-08T14:55:54;47.90;19.00
32173;DHT22;18679;45.190;5.722;2023-07-08T14:58:56;47.50;19.20
32173;DHT22;18679;45.190;5.722;2023-07-08T15:01:59;46.70;19.90
32173;DHT22;18679;45.190;5.722;2023-07-08T15:05:01;46.70;20.00
32173;DHT22;18679;45.190;5.722;2023-07-08T15:08:02;46.80;19.80
32173;DHT22;18679;45.190;5.722;2023-07-08T15:11:05;46.50;20.00
32173;DHT22;18679;45.190;5.722;2023-07-08T15:14:18;46.40;20.00
32173;DHT22;18679;45.190;5.722;2023-07-08T15:17:20;46.40;20.10
32173;DHT22;18679;45.190;5.722;2023-07-08T15:20:21;46.60;20.00
32173;DHT22;18679;45.190;5.722;2023-07-08T15:23:22;46.70;20.00
32173;DHT22;18679;45.190;5.722;2023-07-08T15:26:24;46.50;20.00
32173;DHT22;18679;45.190;5.722;2023-07-08T15:29:26;46.20;20.20
32173;DHT22;18679;45.190;5.722;2023-07-08T15:32:27;46.20;20.20
32173;DHT22;18679;45.190;5.722;2023-07-08T15:35:29;46.30;20.30
32173;DHT22;18679;45.190;5.722;2023-07-08T15:38:34;46.50;20.00
32173;DHT22;18679;45.190;5.722;2023-07-08T15:41:36;46.00;20.20
32173;DHT22;18679;45.190;5.722;2023-07-08T15:44:39;45.50;20.50
32173;DHT22;18679;45.190;5.722;2023-07-08T15:47:40;45.40;20.70
32173;DHT22;18679;45.190;5.722;2023-07-08T15:50:42;45.30;20.70
32173;DHT22;18679;45.190;5.722;2023-07-08T15:53:44;45.30;20.70
32173;DHT22;18679;45.190;5.722;2023-07-08T15:56:47;45.10;20.90
32173;DHT22;18679;45.190;5.722;2023-07-08T15:59:49;44.90;20.90
32173;DHT22;18679;45.190;5.722;2023-07-08T16:02:53;44.70;21.20
32173;DHT22;18679;45.190;5.722;2023-07-08T16:05:57;44.80;21.20
32173;DHT22;18679;45.190;5.722;2023-07-08T16:08:58;44.70;21.20
32173;DHT22;18679;45.190;5.722;2023-07-08T16:12:00;44.50;21.40
32173;DHT22;18679;45.190;5.722;2023-07-08T16:15:01;44.40;21.60
32173;DHT22;18679;45.190;5.722;2023-07-08T16:18:03;44.20;21.60
32173;DHT22;18679;45.190;5.722;2023-07-08T16:21:06;44.10;21.70
32173;DHT22;18679;45.190;5.722;2023-07-08T16:24:09;43.80;21.80
32173;DHT22;18679;45.190;5.722;2023-07-08T16:27:11;43.80;22.00
32173;DHT22;18679;45.190;5.722;2023-07-08T16:30:18;43.90;21.90
32173;DHT22;18679;45.190;5.722;2023-07-08T16:33:21;43.80;21.90
32173;DHT22;18679;45.190;5.722;2023-07-08T16:36:25;43.50;22.10
32173;DHT22;18679;45.190;5.722;2023-07-08T16:39:27;43.20;22.40
32173;DHT22;18679;45.190;5.722;2023-07-08T16:42:38;43.00;22.70
32173;DHT22;18679;45.190;5.722;2023-07-08T16:45:39;42.90;22.80
32173;DHT22;18679;45.190;5.722;2023-07-08T16:48:41;42.60;22.90
32173;DHT22;18679;45.190;5.722;2023-07-08T16:51:43;42.50;23.00
32173;DHT22;18679;45.190;5.722;2023-07-08T16:54:46;42.30;23.30
32173;DHT22;18679;45.190;5.722;2023-07-08T16:57:48;42.10;23.30
32173;DHT22;18679;45.190;5.722;2023-07-08T17:00:49;42.10;23.40
32173;DHT22;18679;45.190;5.722;2023-07-08T17:03:51;41.70;23.60
32173;DHT22;18679;45.190;5.722;2023-07-08T17:06:53;40.70;24.50
32173;DHT22;18679;45.190;5.722;2023-07-08T17:09:55;39.60;25.50
32173;DHT22;18679;45.190;5.722;2023-07-08T17:12:57;38.70;26.50
32173;DHT22;18679;45.190;5.722;2023-07-08T17:15:58;38.00;27.20
32173;DHT22;18679;45.190;5.722;2023-07-08T17:18:59;37.40;27.80
32173;DHT22;18679;45.190;5.722;2023-07-08T17:22:00;37.00;28.50
32173;DHT22;18679;45.190;5.722;2023-07-08T17:25:01;36.60;28.90
32173;DHT22;18679;45.190;5.722;2023-07-08T17:28:02;36.30;29.40
32173;DHT22;18679;45.190;5.722;2023-07-08T17:31:03;35.90;29.80
32173;DHT22;18679;45.190;5.722;2023-07-08T17:34:05;35.70;30.10
32173;DHT22;18679;45.190;5.722;2023-07-08T17:37:08;35.50;30.50
32173;DHT22;18679;45.190;5.722;2023-07-08T17:40:17;35.30;30.80
32173;DHT22;18679;45.190;5.722;2023-07-08T17:43:18;35.10;31.00
32173;DHT22;18679;45.190;5.722;2023-07-08T17:46:22;35.10;31.20
32173;DHT22;18679;45.190;5.722;2023-07-08T17:49:24;35.10;31.30
32173;DHT22;18679;45.190;5.722;2023-07-08T17:52:26;35.10;31.40
32173;DHT22;18679;45.190;5.722;2023-07-08T17:55:27;35.00;31.60
32173;DHT22;18679;45.190;5.722;2023-07-08T17:58:31;34.80;31.90
32173;DHT22;18679;45.190;5.722;2023-07-08T18:01:33;34.70;32.00
32173;DHT22;18679;45.190;5.722;2023-07-08T18:04:34;34.70;32.20
32173;DHT22;18679;45.190;5.722;2023-07-08T18:07:35;34.70;32.40
32173;DHT22;18679;45.190;5.722;2023-07-08T18:10:36;34.60;32.70
32173;DHT22;18679;45.190;5.722;2023-07-08T18:13:37;34.50;32.90
32173;DHT22;18679;45.190;5.722;2023-07-08T18:16:39;34.50;33.00
32173;DHT22;18679;45.190;5.722;2023-07-08T18:19:40;34.50;33.10
32173;DHT22;18679;45.190;5.722;2023-07-08T18:22:48;34.50;33.10
32173;DHT22;18679;45.190;5.722;2023-07-08T18:25:50;34.40;33.30
32173;DHT22;18679;45.190;5.722;2023-07-08T18:28:51;34.40;33.40
32173;DHT22;18679;45.190;5.722;2023-07-08T18:31:52;34.30;33.50
32173;DHT22;18679;45.190;5.722;2023-07-08T18:34:54;34.30;33.70
32173;DHT22;18679;45.190;5.722;2023-07-08T18:37:55;34.20;33.80
32173;DHT22;18679;45.190;5.722;2023-07-08T18:40:57;34.20;34.00
32173;DHT22;18679;45.190;5.722;2023-07-08T18:43:58;34.10;34.10
32173;DHT22;18679;45.190;5.722;2023-07-08T18:47:00;34.10;34.50
32173;DHT22;18679;45.190;5.722;2023-07-08T18:50:02;34.10;34.30
32173;DHT22;18679;45.190;5.722;2023-07-08T18:53:08;34.10;34.40
32173;DHT22;18679;45.190;5.722;2023-07-08T18:56:16;33.70;34.40
32173;DHT22;18679;45.190;5.722;2023-07-08T18:59:17;33.90;34.80
32173;DHT22;18679;45.190;5.722;2023-07-08T19:02:35;33.80;34.90
32173;DHT22;18679;45.190;5.722;2023-07-08T19:05:38;33.80;35.20
32173;DHT22;18679;45.190;5.722;2023-07-08T19:08:41;33.80;35.30
32173;DHT22;18679;45.190;5.722;2023-07-08T19:11:44;33.70;35.60
32173;DHT22;18679;45.190;5.722;2023-07-08T19:14:47;33.60;35.80
32173;DHT22;18679;45.190;5.722;2023-07-08T19:17:49;33.60;35.90
32173;DHT22;18679;45.190;5.722;2023-07-08T19:20:51;33.60;36.00
32173;DHT22;18679;45.190;5.722;2023-07-08T19:23:55;33.50;36.20
32173;DHT22;18679;45.190;5.722;2023-07-08T19:26:55;33.50;36.30
32173;DHT22;18679;45.190;5.722;2023-07-08T19:29:56;33.50;36.40
32173;DHT22;18679;45.190;5.722;2023-07-08T19:32:58;33.40;36.50
32173;DHT22;18679;45.190;5.722;2023-07-08T19:36:00;33.40;36.80
32173;DHT22;18679;45.190;5.722;2023-07-08T19:39:03;33.30;36.90
32173;DHT22;18679;45.190;5.722;2023-07-08T19:42:07;33.30;37.00
32173;DHT22;18679;45.190;5.722;2023-07-08T19:45:18;33.20;37.00
32173;DHT22;18679;45.190;5.722;2023-07-08T19:48:19;33.20;37.20
32173;DHT22;18679;45.190;5.722;2023-07-08T19:51:20;33.10;37.30
32173;DHT22;18679;45.190;5.722;2023-07-08T19:54:22;33.00;37.30
32173;DHT22;18679;45.190;5.722;2023-07-08T19:57:24;33.00;37.50
32173;DHT22;18679;45.190;5.722;2023-07-08T20:00:39;32.90;37.50
32173;DHT22;18679;45.190;5.722;2023-07-08T20:03:41;32.80;37.70
32173;DHT22;18679;45.190;5.722;2023-07-08T20:06:45;32.80;37.70
32173;DHT22;18679;45.190;5.722;2023-07-08T20:09:46;32.80;37.70
32173;DHT22;18679;45.190;5.722;2023-07-08T20:12:47;32.80;37.60
32173;DHT22;18679;45.190;5.722;2023-07-08T20:15:49;32.80;37.70
32173;DHT22;18679;45.190;5.722;2023-07-08T20:18:50;32.60;37.80
32173;DHT22;18679;45.190;5.722;2023-07-08T20:21:56;32.60;37.90
32173;DHT22;18679;45.190;5.722;2023-07-08T20:24:57;32.60;37.90
32173;DHT22;18679;45.190;5.722;2023-07-08T20:27:58;32.50;37.80
32173;DHT22;18679;45.190;5.722;2023-07-08T20:31:00;32.50;37.90
32173;DHT22;18679;45.190;5.722;2023-07-08T20:34:01;32.50;38.00
32173;DHT22;18679;45.190;5.722;2023-07-08T20:37:02;32.40;38.20
32173;DHT22;18679;45.190;5.722;2023-07-08T20:40:05;32.40;38.30
32173;DHT22;18679;45.190;5.722;2023-07-08T20:43:18;32.40;38.50
32173;DHT22;18679;45.190;5.722;2023-07-08T20:46:26;32.30;38.40
32173;DHT22;18679;45.190;5.722;2023-07-08T20:49:28;32.30;38.40
32173;DHT22;18679;45.190;5.722;2023-07-08T20:52:33;32.30;38.40
32173;DHT22;18679;45.190;5.722;2023-07-08T20:55:34;32.20;38.30
32173;DHT22;18679;45.190;5.722;2023-07-08T20:58:36;32.20;38.30
32173;DHT22;18679;45.190;5.722;2023-07-08T21:01:37;32.20;38.60
32173;DHT22;18679;45.190;5.722;2023-07-08T21:04:39;32.20;38.50
32173;DHT22;18679;45.190;5.722;2023-07-08T21:07:41;32.20;38.60
32173;DHT22;18679;45.190;5.722;2023-07-08T21:10:42;32.10;38.60
32173;DHT22;18679;45.190;5.722;2023-07-08T21:13:43;32.10;39.40
32173;DHT22;18679;45.190;5.722;2023-07-08T21:16:46;32.10;39.00
32173;DHT22;18679;45.190;5.722;2023-07-08T21:19:48;32.10;39.00
32173;DHT22;18679;45.190;5.722;2023-07-08T21:22:49;32.00;39.10
32173;DHT22;18679;45.190;5.722;2023-07-08T21:25:52;32.00;39.30
32173;DHT22;18679;45.190;5.722;2023-07-08T21:28:57;32.00;39.30
32173;DHT22;18679;45.190;5.722;2023-07-08T21:31:59;32.00;39.50
32173;DHT22;18679;45.190;5.722;2023-07-08T21:35:01;31.90;39.60
32173;DHT22;18679;45.190;5.722;2023-07-08T21:38:02;31.90;39.70
32173;DHT22;18679;45.190;5.722;2023-07-08T21:41:03;31.80;39.90
32173;DHT22;18679;45.190;5.722;2023-07-08T21:44:12;31.80;40.00
32173;DHT22;18679;45.190;5.722;2023-07-08T21:47:14;31.70;40.20
32173;DHT22;18679;45.190;5.722;2023-07-08T21:50:16;31.70;40.30
32173;DHT22;18679;45.190;5.722;2023-07-08T21:53:20;31.70;40.40
32173;DHT22;18679;45.190;5.722;2023-07-08T21:56:22;31.60;40.50
32173;DHT22;18679;45.190;5.722;2023-07-08T21:59:25;31.60;40.60
32173;DHT22;18679;45.190;5.722;2023-07-08T22:02:26;31.50;40.70
32173;DHT22;18679;45.190;5.722;2023-07-08T22:05:27;31.50;40.70
32173;DHT22;18679;45.190;5.722;2023-07-08T22:08:28;31.50;40.90
32173;DHT22;18679;45.190;5.722;2023-07-08T22:11:35;31.50;40.90
32173;DHT22;18679;45.190;5.722;2023-07-08T22:14:37;31.40;41.10
32173;DHT22;18679;45.190;5.722;2023-07-08T22:17:41;31.30;41.10
32173;DHT22;18679;45.190;5.722;2023-07-08T22:20:42;31.30;41.20
32173;DHT22;18679;45.190;5.722;2023-07-08T22:23:44;31.20;41.30
32173;DHT22;18679;45.190;5.722;2023-07-08T22:26:45;31.10;41.30
32173;DHT22;18679;45.190;5.722;2023-07-08T22:29:48;31.00;41.50
32173;DHT22;18679;45.190;5.722;2023-07-08T22:32:50;30.90;41.60
32173;DHT22;18679;45.190;5.722;2023-07-08T22:35:51;30.90;41.80
32173;DHT22;18679;45.190;5.722;2023-07-08T22:39:06;30.90;41.90
32173;DHT22;18679;45.190;5.722;2023-07-08T22:42:07;30.80;42.10
32173;DHT22;18679;45.190;5.722;2023-07-08T22:45:16;30.70;42.10
32173;DHT22;18679;45.190;5.722;2023-07-08T22:48:18;30.70;42.30
32173;DHT22;18679;45.190;5.722;2023-07-08T22:51:18;30.70;42.30
32173;DHT22;18679;45.190;5.722;2023-07-08T22:54:19;30.70;42.50
32173;DHT22;18679;45.190;5.722;2023-07-08T22:57:20;30.60;42.60
32173;DHT22;18679;45.190;5.722;2023-07-08T23:00:24;30.60;42.70
32173;DHT22;18679;45.190;5.722;2023-07-08T23:03:26;30.50;42.80
32173;DHT22;18679;45.190;5.722;2023-07-08T23:06:28;30.60;43.00
32173;DHT22;18679;45.190;5.722;2023-07-08T23:09:29;30.50;42.90
32173;DHT22;18679;45.190;5.722;2023-07-08T23:12:31;30.50;43.00
32173;DHT22;18679;45.190;5.722;2023-07-08T23:15:32;30.50;43.00
32173;DHT22;18679;45.190;5.722;2023-07-08T23:18:35;30.50;43.00
32173;DHT22;18679;45.190;5.722;2023-07-08T23:21:36;30.40;43.00
32173;DHT22;18679;45.190;5.722;2023-07-08T23:24:38;30.40;43.10
32173;DHT22;18679;45.190;5.722;2023-07-08T23:27:39;30.40;43.30
32173;DHT22;18679;45.190;5.722;2023-07-08T23:30:40;30.30;43.30
32173;DHT22;18679;45.190;5.722;2023-07-08T23:33:42;30.40;43.40
32173;DHT22;18679;45.190;5.722;2023-07-08T23:36:49;30.40;43.40
32173;DHT22;18679;45.190;5.722;2023-07-08T23:39:50;30.40;43.40
32173;DHT22;18679;45.190;5.722;2023-07-08T23:42:51;30.40;43.30
32173;DHT22;18679;45.190;5.722;2023-07-08T23:45:52;30.40;43.30
32173;DHT22;18679;45.190;5.722;2023-07-08T23:48:54;30.50;43.40
32173;DHT22;18679;45.190;5.722;2023-07-08T23:51:57;30.40;43.40
32173;DHT22;18679;45.190;5.722;2023-07-08T23:54:58;30.40;43.60
32173;DHT22;18679;45.190;5.722;2023-07-08T23:57:59;30.40;43.70
